Time;durP1;ratioP1;P1;durP2;ratioP2;P2;SDS_P1;SDS_P2;PMS_P1;PMS_P2;Temp;Humidity;BMP_temperature;BMP_pressure;BME280_temperature;BME280_humidity;BME280_pressure;Samples;Min_cycle;Max_cycle;Signal;HPM_P1;HPM_P2
2023/01/04 00:01:19;;;;;;;3.90;3.20;;;;;;;10.19;79.65;101481.41;5092075;28;20077;-64
2023/01/04 00:03:45;;;;;;;4.38;2.78;;;;;;;10.42;78.95;101477.78;5092674;28;20024;-64
2023/01/04 00:06:14;;;;;;;3.92;3.15;;;;;;;10.34;78.92;101483.25;5091822;28;20027;-64
2023/01/04 00:08:41;;;;;;;3.28;2.75;;;;;;;10.47;78.30;101473.53;5088456;28;20048;-64
2023/01/04 00:11:12;;;;;;;3.72;3.08;;;;;;;10.77;77.46;101478.75;5088340;28;20107;-58
2023/01/04 00:13:38;;;;;;;4.30;3.08;;;;;;;10.31;78.41;101468.41;5077758;28;20028;-59
2023/01/04 00:16:13;;;;;;;5.13;3.00;;;;;;;10.42;78.09;101467.06;5087140;28;20028;-58
2023/01/04 00:18:39;;;;;;;3.28;2.80;;;;;;;9.93;78.92;101465.03;5092318;28;20506;-59
2023/01/04 00:21:11;;;;;;;3.72;3.42;;;;;;;9.85;79.29;101467.81;5091518;28;20031;-59
2023/01/04 00:23:39;;;;;;;4.65;3.78;;;;;;;9.77;80.14;101461.56;5091830;28;20020;-64
2023/01/04 00:26:10;;;;;;;4.78;3.78;;;;;;;9.56;80.78;101448.09;5078137;28;20080;-63
2023/01/04 00:28:37;;;;;;;4.90;3.50;;;;;;;9.40;81.59;101443.75;5088797;28;20568;-63
2023/01/04 00:31:05;;;;;;;4.20;3.63;;;;;;;9.43;82.00;101426.53;5090914;28;20050;-63
2023/01/04 00:33:32;;;;;;;5.63;4.57;;;;;;;9.21;83.20;101434.44;5092013;28;20468;-63
2023/01/04 00:36:08;;;;;;;4.63;4.07;;;;;;;9.39;82.36;101431.44;5091996;28;20032;-64
2023/01/04 00:38:35;;;;;;;5.28;4.15;;;;;;;9.36;82.36;101428.28;5092358;28;20024;-63
2023/01/04 00:41:02;;;;;;;4.20;3.80;;;;;;;9.32;82.40;101421.63;5091868;28;20154;-64
2023/01/04 00:43:28;;;;;;;4.60;3.92;;;;;;;9.30;81.97;101426.34;5092489;28;20028;-63
2023/01/04 00:45:55;;;;;;;5.55;4.90;;;;;;;9.15;82.60;101416.47;5092154;28;20051;-63
2023/01/04 00:48:21;;;;;;;6.88;4.82;;;;;;;9.13;83.27;101415.81;5092199;28;20175;-63
2023/01/04 00:50:49;;;;;;;6.28;4.93;;;;;;;9.01;83.66;101403.94;5091692;28;20434;-64
2023/01/04 00:53:16;;;;;;;5.78;5.07;;;;;;;9.04;84.01;101394.72;5079598;28;20037;-63
2023/01/04 00:55:43;;;;;;;5.90;5.30;;;;;;;8.94;84.80;101387.81;5089851;28;20025;-63
2023/01/04 00:58:10;;;;;;;6.28;5.35;;;;;;;8.87;84.96;101378.03;5090466;28;20293;-63
2023/01/04 01:00:37;;;;;;;7.15;5.40;;;;;;;8.84;85.03;101384.56;5091674;28;20046;-63
2023/01/04 01:03:03;;;;;;;7.28;5.32;;;;;;;8.88;84.63;101388.56;5091818;28;20028;-63
2023/01/04 01:05:32;;;;;;;8.32;5.45;;;;;;;8.83;84.55;101392.75;5092216;28;20047;-63
2023/01/04 01:08:23;;;;;;;6.85;5.47;;;;;;;8.96;84.16;101387.63;5091768;28;20545;-64
2023/01/04 01:10:44;;;;;;;8.07;5.28;;;;;;;8.96;84.13;101388.47;5091613;28;20054;-63
2023/01/04 01:13:10;;;;;;;8.55;5.35;;;;;;;8.77;84.82;101388.94;5091797;28;20024;-63
2023/01/04 01:15:36;;;;;;;8.02;5.38;;;;;;;8.98;84.08;101388.25;5091984;28;20120;-63
2023/01/04 01:18:02;;;;;;;7.82;5.70;;;;;;;8.85;84.15;101386.22;5091688;28;20025;-63
2023/01/04 01:20:29;;;;;;;7.18;5.90;;;;;;;8.98;83.72;101390.94;5091122;28;20468;-63
2023/01/04 01:22:55;;;;;;;8.30;6.78;;;;;;;9.10;83.55;101400.16;5085007;28;20122;-64
2023/01/04 01:25:21;;;;;;;6.40;5.72;;;;;;;8.87;83.85;101412.72;5078241;28;20040;-63
2023/01/04 01:27:47;;;;;;;8.35;6.30;;;;;;;8.95;84.12;101410.00;5091153;28;20097;-63
2023/01/04 01:30:13;;;;;;;6.57;5.38;;;;;;;9.25;82.52;101417.03;5081833;28;20590;-64
2023/01/04 01:32:40;;;;;;;6.60;5.72;;;;;;;8.96;83.29;101414.31;5089336;28;20024;-63
2023/01/04 01:35:06;;;;;;;5.82;5.30;;;;;;;9.18;83.25;101423.31;5082048;28;20021;-63
2023/01/04 01:37:32;;;;;;;7.72;6.00;;;;;;;8.99;83.40;101414.81;5071198;28;20089;-63
2023/01/04 01:39:59;;;;;;;7.30;6.15;;;;;;;8.87;84.09;101418.91;5087565;28;20024;-63
2023/01/04 01:42:25;;;;;;;8.63;6.40;;;;;;;8.92;84.29;101434.38;5072292;28;20024;-63
2023/01/04 01:45:17;;;;;;;5.95;5.35;;;;;;;8.83;84.47;101430.13;5071369;28;20380;-63
2023/01/04 01:47:45;;;;;;;7.35;6.60;;;;;;;8.76;84.74;101415.84;5074077;28;20028;-63
2023/01/04 01:50:47;;;;;;;10.18;7.10;;;;;;;8.71;85.46;101405.69;5074735;28;20028;-63
2023/01/04 01:53:14;;;;;;;7.47;5.88;;;;;;;8.79;85.46;101399.47;5057484;28;20473;-64
2023/01/04 01:55:43;;;;;;;8.18;6.45;;;;;;;9.08;84.67;101401.38;5074939;28;20032;-61
2023/01/04 01:58:12;;;;;;;6.45;5.82;;;;;;;9.12;83.59;101403.50;5094684;28;20051;-63
2023/01/04 02:00:39;;;;;;;10.57;6.00;;;;;;;9.53;nan;101416.41;5087401;28;20111;-64
2023/01/04 02:03:26;;;;;;;7.90;5.68;;;;;;;9.29;82.53;101414.00;5075965;28;20125;-64
2023/01/04 02:05:56;;;;;;;8.00;5.50;;;;;;;9.16;83.70;101412.81;5090301;28;20115;-63
2023/01/04 02:08:24;;;;;;;6.45;5.18;;;;;;;9.24;83.24;101411.88;5074745;28;20032;-63
2023/01/04 02:10:50;;;;;;;6.20;5.60;;;;;;;9.03;84.19;101404.56;5084646;28;20123;-63
2023/01/04 02:14:25;;;;;;;6.00;5.38;;;;;;;9.11;83.97;101417.03;5094696;28;20039;-63
2023/01/04 02:16:35;;;;;;;7.40;5.20;;;;;;;9.45;82.63;101430.69;5086463;28;20082;-63
2023/01/04 02:19:30;;;;;;;12.32;4.43;;;;;;;9.59;82.49;101437.03;5094047;28;20032;-64
2023/01/04 02:21:59;;;;;;;5.13;4.40;;;;;;;9.70;81.95;101417.84;5093534;28;20464;-63
2023/01/04 02:24:46;;;;;;;9.20;4.38;;;;;;;9.83;81.64;101411.00;5081055;28;20465;-63
2023/01/04 02:27:40;;;;;;;5.63;4.18;;;;;;;10.23;79.43;101423.00;5077072;28;20143;-63
2023/01/04 02:30:31;;;;;;;5.88;3.85;;;;;;;10.16;79.67;101417.59;5094454;28;20036;-63
2023/01/04 02:33:09;;;;;;;4.57;3.47;;;;;;;10.48;78.04;101416.28;5094625;28;20548;-63
2023/01/04 02:35:54;;;;;;;5.50;4.63;;;;;;;10.60;76.83;101413.09;5094931;28;20479;-63
2023/01/04 02:38:49;;;;;;;8.02;6.15;;;;;;;10.10;78.31;101420.19;5081937;28;20062;-63
2023/01/04 02:41:33;;;;;;;9.33;6.80;;;;;;;9.77;79.57;101402.75;5055816;28;20044;-63
2023/01/04 02:47:09;;;;;;;10.95;7.50;;;;;;;9.79;79.53;101414.06;5073927;28;20105;-63
2023/01/04 02:52:22;;;;;;;8.70;7.32;;;;;;;10.02;78.91;101416.59;5073836;28;20074;-63
2023/01/04 02:54:51;;;;;;;7.60;6.65;;;;;;;10.04;79.08;101414.56;5075235;28;20028;-63
2023/01/04 02:57:29;;;;;;;7.65;6.82;;;;;;;10.10;78.84;101407.63;5072825;28;20052;-63
2023/01/04 03:00:05;;;;;;;7.45;6.68;;;;;;;10.09;79.12;101402.47;5073484;28;20028;-64
2023/01/04 03:09:18;;;;;;;9.80;6.93;;;;;;;10.01;79.05;101396.22;5093658;28;20043;-62
2023/01/04 03:12:30;;;;;;;8.13;7.10;;;;;;;9.82;79.50;101382.63;5093081;28;20096;-63
2023/01/04 03:15:17;;;;;;;8.45;7.35;;;;;;;9.79;79.94;101373.97;5031182;28;20029;-63
2023/01/04 03:18:08;;;;;;;8.35;7.10;;;;;;;10.02;79.01;101363.13;5075314;28;20025;-63
2023/01/04 03:20:35;;;;;;;8.43;6.90;;;;;;;9.84;79.39;101370.72;5071676;28;20044;-63
2023/01/04 03:37:29;;;;;;;7.55;5.43;;;;;;;9.83;80.27;101341.50;5073117;28;20093;-63
2023/01/04 03:49:21;;;;;;;6.20;3.47;;;;;;;9.86;80.30;101349.16;5080531;28;20054;-63
2023/01/04 03:51:50;;;;;;;5.10;3.58;;;;;;;10.01;79.44;101357.97;5092577;28;20103;-63
2023/01/04 03:54:24;;;;;;;5.70;3.70;;;;;;;10.12;79.54;101362.00;5087213;28;20529;-63
2023/01/04 03:56:52;;;;;;;6.45;5.78;;;;;;;10.14;79.11;101359.94;5078822;28;20103;-63
2023/01/04 03:59:21;;;;;;;8.20;6.18;;;;;;;10.22;78.89;101355.31;5091026;28;20024;-63
2023/01/04 04:01:48;;;;;;;10.05;7.28;;;;;;;10.27;77.80;101350.25;5084664;28;20028;-63
2023/01/04 04:09:44;;;;;;;7.95;6.32;;;;;;;9.88;79.55;101361.28;5080195;28;20035;-63
2023/01/04 04:12:10;;;;;;;11.82;7.68;;;;;;;9.79;80.42;101357.94;5092253;28;20099;-63
2023/01/04 04:14:36;;;;;;;8.63;7.13;;;;;;;9.90;79.88;101355.78;5091941;28;20024;-63
2023/01/04 04:17:03;;;;;;;8.23;6.50;;;;;;;9.72;80.73;101359.69;5092319;28;20044;-63
2023/01/04 04:19:29;;;;;;;7.47;6.72;;;;;;;10.00;79.57;101358.97;5086708;28;20417;-63
2023/01/04 04:21:55;;;;;;;10.98;6.43;;;;;;;9.90;80.00;101361.97;5072543;22;20354;-63
2023/01/04 04:24:24;;;;;;;9.18;5.88;;;;;;;9.79;80.01;101373.97;5025438;28;20025;-63
2023/01/04 04:26:53;;;;;;;7.40;6.28;;;;;;;9.86;80.20;101370.53;5031277;28;20544;-62
2023/01/04 04:29:23;;;;;;;8.82;5.75;;;;;;;10.04;79.44;101374.44;5027917;28;20045;-63
2023/01/04 04:31:50;;;;;;;7.40;4.53;;;;;;;9.85;80.16;101379.59;5023252;28;20030;-63
2023/01/04 04:34:16;;;;;;;7.47;4.38;;;;;;;10.13;78.84;101379.69;5025975;28;20032;-63
2023/01/04 04:36:42;;;;;;;5.15;3.92;;;;;;;9.78;79.86;101388.34;5030441;28;20124;-63
2023/01/04 04:39:09;;;;;;;6.18;4.10;;;;;;;9.85;80.20;101388.44;5030336;28;20465;-63
2023/01/04 04:41:40;;;;;;;10.68;6.32;;;;;;;9.97;79.23;101392.28;5029763;28;20458;-63
2023/01/04 04:44:16;;;;;;;7.95;6.10;;;;;;;9.92;78.99;101394.69;5031660;28;20029;-63
2023/01/04 04:46:42;;;;;;;11.60;6.13;;;;;;;9.69;80.49;101391.31;5016786;28;20519;-63
2023/01/04 04:49:09;;;;;;;9.55;5.72;;;;;;;9.71;80.20;101392.78;5031656;28;20425;-63
2023/01/04 04:51:36;;;;;;;10.35;6.60;;;;;;;9.61;81.09;101394.94;5031164;28;20101;-62
2023/01/04 04:54:05;;;;;;;10.45;7.55;;;;;;;9.60;80.92;101414.63;5032117;28;20088;-62
2023/01/04 04:56:32;;;;;;;10.70;8.02;;;;;;;9.55;80.96;101426.88;5046636;28;20025;-63
2023/01/04 04:58:58;;;;;;;10.93;8.75;;;;;;;9.36;81.99;101423.75;5031759;28;20037;-63
2023/01/04 05:01:24;;;;;;;11.65;10.25;;;;;;;9.32;82.06;101425.13;5031564;28;20056;-63
2023/01/04 05:03:50;;;;;;;15.93;11.60;;;;;;;9.23;82.00;101423.59;5029250;28;20026;-63
2023/01/04 05:06:17;;;;;;;14.93;11.43;;;;;;;9.19;82.29;101427.63;5031937;28;20091;-62
2023/01/04 05:08:43;;;;;;;18.27;12.02;;;;;;;8.99;84.02;101440.66;5031897;28;20433;-63
2023/01/04 05:11:12;;;;;;;16.95;12.55;;;;;;;9.01;83.32;101438.66;5051304;28;20480;-62
2023/01/04 05:13:39;;;;;;;16.10;13.50;;;;;;;9.06;83.26;101440.78;5033493;28;20034;-63
2023/01/04 05:16:07;;;;;;;16.95;12.77;;;;;;;8.90;84.25;101453.25;5012067;28;20383;-63
2023/01/04 05:18:34;;;;;;;18.83;13.38;;;;;;;8.51;86.51;101453.41;5012363;28;20032;-62
2023/01/04 05:21:01;;;;;;;20.63;13.63;;;;;;;8.68;85.93;101454.94;5026360;28;20053;-63
2023/01/04 05:23:28;;;;;;;21.00;13.63;;;;;;;8.84;85.14;101445.97;5026269;28;20046;-63
2023/01/04 05:26:02;;;;;;;16.05;12.20;;;;;;;8.62;86.28;101444.97;5035366;28;20087;-63
2023/01/04 05:28:29;;;;;;;17.90;13.63;;;;;;;8.63;86.87;101451.97;5016466;28;20056;-63
2023/01/04 05:30:56;;;;;;;22.27;14.13;;;;;;;8.58;86.79;101443.66;5017977;28;20477;-63
2023/01/04 05:33:25;;;;;;;17.17;13.40;;;;;;;8.67;86.69;101439.94;5015385;28;20382;-63
2023/01/04 05:35:53;;;;;;;17.00;13.05;;;;;;;8.80;85.69;101431.31;5015322;28;20045;-63
2023/01/04 05:38:19;;;;;;;20.85;14.10;;;;;;;8.81;85.29;101427.63;5015432;28;20022;-63
2023/01/04 05:40:48;;;;;;;17.58;13.52;;;;;;;8.83;85.20;101430.13;5023801;28;20037;-63
2023/01/04 05:43:15;;;;;;;16.77;12.52;;;;;;;8.89;84.70;101432.09;5035081;28;20025;-63
2023/01/04 05:45:48;;;;;;;22.13;14.35;;;;;;;8.60;85.71;101430.13;5031330;28;20022;-63
2023/01/04 05:48:14;;;;;;;20.73;15.23;;;;;;;8.69;85.21;101418.41;5015178;28;20105;-63
2023/01/04 05:50:41;;;;;;;29.00;18.17;;;;;;;8.40;86.56;101416.47;5014888;28;20381;-63
2023/01/04 05:53:07;;;;;;;21.73;16.88;;;;;;;8.50;85.68;101409.06;5030392;28;20100;-63
2023/01/04 05:55:34;;;;;;;25.73;16.73;;;;;;;8.30;86.39;101413.16;5015168;28;20040;-63
2023/01/04 05:58:00;;;;;;;20.75;15.68;;;;;;;8.53;85.89;101419.34;5034111;28;20051;-63
2023/01/04 06:00:26;;;;;;;18.33;15.38;;;;;;;8.59;85.25;101425.81;5034285;28;20033;-63
2023/01/04 06:02:54;;;;;;;23.25;17.08;;;;;;;8.44;85.72;101437.28;5034558;28;20029;-63
2023/01/04 06:05:21;;;;;;;22.55;15.85;;;;;;;8.58;84.96;101437.50;5034515;28;20044;-63
2023/01/04 06:07:47;;;;;;;20.20;14.38;;;;;;;8.55;85.24;101428.03;5034256;28;20025;-62
2023/01/04 06:10:14;;;;;;;22.77;15.70;;;;;;;8.49;85.47;101418.03;5034073;28;20033;-63
2023/01/04 06:12:41;;;;;;;20.63;15.20;;;;;;;8.32;86.55;101416.47;5034324;28;20417;-63
2023/01/04 06:15:09;;;;;;;21.70;16.27;;;;;;;8.25;87.57;101416.34;5044808;22;20064;-62
2023/01/04 06:17:36;;;;;;;24.63;18.35;;;;;;;8.18;87.53;101426.91;5023687;28;20552;-62
2023/01/04 06:20:05;;;;;;;24.65;17.20;;;;;;;8.14;87.93;101430.91;5034102;28;20032;-63
2023/01/04 06:22:31;;;;;;;21.15;16.38;;;;;;;8.14;88.10;101430.91;5034342;28;20032;-62
2023/01/04 06:24:58;;;;;;;21.85;15.60;;;;;;;8.09;87.71;101427.94;5034556;28;20025;-63
2023/01/04 06:27:25;;;;;;;18.30;15.20;;;;;;;8.13;88.27;101439.09;5034456;28;20028;-63
2023/01/04 06:29:52;;;;;;;17.00;13.77;;;;;;;8.26;87.60;101454.50;5033339;28;20038;-63
2023/01/04 06:32:18;;;;;;;19.25;14.10;;;;;;;8.29;87.05;101459.50;5015619;28;20018;-63
2023/01/04 06:34:44;;;;;;;18.73;13.77;;;;;;;7.94;88.68;101459.03;5034182;28;20021;-63
2023/01/04 06:37:10;;;;;;;18.92;14.55;;;;;;;8.24;88.33;101453.88;5023109;28;20033;-63
2023/01/04 06:39:37;;;;;;;17.65;14.32;;;;;;;8.15;88.21;101448.56;5033833;28;20072;-62
2023/01/04 06:42:04;;;;;;;17.05;12.85;;;;;;;8.44;86.18;101442.59;5033671;28;20480;-63
2023/01/04 06:44:30;;;;;;;20.13;14.48;;;;;;;7.87;88.74;101439.38;5033954;28;20436;-63
2023/01/04 06:46:56;;;;;;;18.67;14.13;;;;;;;8.11;87.95;101433.94;5032474;28;20168;-63
2023/01/04 06:49:23;;;;;;;17.48;13.45;;;;;;;7.67;89.84;101426.50;5031983;28;20030;-62
2023/01/04 06:51:49;;;;;;;21.15;14.20;;;;;;;7.67;90.63;101415.81;5030504;28;20025;-62
2023/01/04 06:54:15;;;;;;;20.45;16.10;;;;;;;7.44;91.50;101401.59;5019686;28;20033;-62
2023/01/04 06:56:41;;;;;;;21.45;14.88;;;;;;;7.55;91.18;101387.91;5014130;28;20470;-62
2023/01/04 06:59:08;;;;;;;18.80;13.57;;;;;;;7.73;90.11;101379.66;5018946;28;20120;-62
2023/01/04 07:01:35;;;;;;;18.90;13.55;;;;;;;7.77;89.97;101380.13;5033485;28;20496;-63
2023/01/04 07:04:01;;;;;;;16.55;12.93;;;;;;;7.68;89.97;101380.19;5033913;28;20029;-62
2023/01/04 07:06:28;;;;;;;17.13;12.70;;;;;;;7.67;90.19;101370.53;5034667;28;20030;-63
2023/01/04 07:08:55;;;;;;;18.73;13.25;;;;;;;7.64;90.21;101383.38;5033536;28;20025;-62
2023/01/04 07:11:21;;;;;;;17.85;12.80;;;;;;;7.64;89.98;101373.53;5032244;28;20048;-63
2023/01/04 07:13:47;;;;;;;15.05;12.27;;;;;;;7.83;89.04;101380.28;5017571;28;20462;-63
2023/01/04 07:16:13;;;;;;;14.90;12.20;;;;;;;7.60;89.72;101382.03;5021480;28;20026;-62
2023/01/04 07:18:39;;;;;;;15.75;12.55;;;;;;;7.87;88.90;101364.75;5042324;28;20036;-62
2023/01/04 07:21:06;;;;;;;13.68;11.70;;;;;;;7.81;89.23;101354.81;5045582;28;20116;-62
2023/01/04 07:23:32;;;;;;;17.50;13.07;;;;;;;7.84;88.52;101347.28;5022963;28;20061;-63
2023/01/04 07:26:02;;;;;;;14.77;11.93;;;;;;;8.00;88.14;101354.38;5013451;28;20378;-62
2023/01/04 07:31:13;;;;;;;18.52;13.98;;;;;;;7.67;89.05;101348.41;5020733;28;20048;-62
2023/01/04 07:33:39;;;;;;;18.73;13.00;;;;;;;7.78;88.27;101341.84;5021297;28;20072;-62
2023/01/04 07:36:06;;;;;;;15.80;13.32;;;;;;;7.68;88.57;101337.56;5029306;28;20029;-62
2023/01/04 07:38:34;;;;;;;16.20;12.50;;;;;;;7.56;89.85;101325.63;5013072;28;20034;-62
2023/01/04 07:41:00;;;;;;;18.33;13.98;;;;;;;7.28;91.36;101317.28;5018686;28;20091;-62
2023/01/04 07:43:27;;;;;;;20.65;15.70;;;;;;;7.02;93.11;101311.38;5037904;28;20055;-62
2023/01/04 07:45:53;;;;;;;18.75;14.98;;;;;;;7.03;93.40;101302.38;5028217;28;20053;-62
2023/01/04 07:48:19;;;;;;;18.63;14.77;;;;;;;7.03;93.40;101303.19;5045606;28;20040;-62
2023/01/04 07:50:45;;;;;;;21.05;15.68;;;;;;;6.96;94.00;101291.59;5048449;28;20032;-62
2023/01/04 07:53:12;;;;;;;20.58;14.80;;;;;;;7.10;93.41;101272.22;5030454;28;20489;-62
2023/01/04 07:55:38;;;;;;;20.40;15.90;;;;;;;7.07;93.81;101274.41;5013024;28;20025;-62
2023/01/04 07:58:04;;;;;;;20.70;15.30;;;;;;;7.06;93.95;101270.94;5012917;28;20482;-62
2023/01/04 08:00:31;;;;;;;19.40;14.93;;;;;;;7.12;93.79;101274.75;5029080;28;20112;-62
2023/01/04 08:02:57;;;;;;;19.55;15.20;;;;;;;7.15;93.72;101264.56;5032866;28;20029;-62
2023/01/04 08:05:24;;;;;;;20.15;14.65;;;;;;;7.26;92.93;101258.00;5032814;28;20060;-62
2023/01/04 08:07:51;;;;;;;19.92;15.63;;;;;;;7.32;92.94;101267.13;5033067;28;20442;-62
2023/01/04 08:10:17;;;;;;;25.15;16.92;;;;;;;7.18;93.04;101266.06;5033133;28;20036;-62
2023/01/04 08:12:43;;;;;;;22.90;16.63;;;;;;;7.18;93.73;101270.56;5032533;28;20457;-62
2023/01/04 08:15:10;;;;;;;21.42;16.33;;;;;;;7.18;93.77;101265.22;5032190;28;20061;-62
2023/01/04 08:17:36;;;;;;;22.10;16.95;;;;;;;7.23;93.41;101260.22;5032409;28;20029;-62
2023/01/04 08:20:03;;;;;;;17.00;14.38;;;;;;;7.27;93.08;101280.97;5032244;28;20033;-62
2023/01/04 08:22:29;;;;;;;21.80;15.68;;;;;;;7.35;92.32;101285.44;5032292;28;20241;-62
2023/01/04 08:24:55;;;;;;;21.63;15.00;;;;;;;7.39;92.05;101278.78;5025138;28;20581;-62
2023/01/04 08:27:22;;;;;;;18.23;14.32;;;;;;;7.42;91.89;101275.75;5011925;28;20053;-62
2023/01/04 08:29:48;;;;;;;20.30;14.63;;;;;;;7.42;91.75;101265.09;5030965;28;20339;-62
2023/01/04 08:32:14;;;;;;;16.80;13.05;;;;;;;7.39;91.63;101265.47;5013540;28;20022;-62
2023/01/04 08:34:40;;;;;;;17.30;13.57;;;;;;;7.43;92.06;101252.59;5012222;28;20050;-62
2023/01/04 08:37:07;;;;;;;17.88;12.80;;;;;;;7.59;91.33;101248.00;5029142;28;20466;-62
2023/01/04 08:39:34;;;;;;;18.58;13.38;;;;;;;7.75;90.34;101232.94;5031537;28;20473;-62
2023/01/04 08:42:02;;;;;;;18.50;12.60;;;;;;;7.37;91.24;101231.00;5031753;28;20043;-62
2023/01/04 08:44:28;;;;;;;16.33;12.27;;;;;;;7.32;92.08;101229.88;5034031;28;20030;-62
2023/01/04 08:46:54;;;;;;;15.07;11.70;;;;;;;7.44;91.81;101230.28;5037461;28;20063;-62
2023/01/04 08:49:22;;;;;;;17.65;13.43;;;;;;;7.37;91.48;101235.50;5031098;28;20065;-62
2023/01/04 08:51:49;;;;;;;21.55;14.05;;;;;;;7.35;91.53;101226.88;5028519;28;20033;-62
2023/01/04 08:54:15;;;;;;;15.55;11.25;;;;;;;7.32;92.03;101222.69;5012957;28;20088;-62
2023/01/04 08:56:42;;;;;;;16.67;12.93;;;;;;;7.41;91.74;101204.84;5028145;28;20540;-62
2023/01/04 08:59:10;;;;;;;15.63;12.45;;;;;;;7.39;91.50;101196.22;5019429;28;20470;-62
2023/01/04 09:01:37;;;;;;;16.20;11.00;;;;;;;7.38;91.71;101189.22;5019459;28;20536;-62
2023/01/04 09:04:04;;;;;;;14.10;11.43;;;;;;;7.34;91.73;101182.59;5035800;28;20034;-62
2023/01/04 09:06:30;;;;;;;14.38;11.27;;;;;;;7.38;91.42;101170.56;5035925;28;20029;-62
2023/01/04 09:08:57;;;;;;;12.30;10.30;;;;;;;7.38;91.42;101171.44;5035729;28;20063;-62
2023/01/04 09:11:24;;;;;;;14.60;11.18;;;;;;;7.40;91.26;101177.41;5035512;28;20030;-62
2023/01/04 09:13:58;;;;;;;14.68;11.13;;;;;;;7.52;90.37;101175.16;5037616;28;20052;-62
2023/01/04 09:16:25;;;;;;;13.02;10.05;;;;;;;7.60;90.29;101179.56;5035874;28;20057;-62
2023/01/04 09:18:51;;;;;;;13.52;10.00;;;;;;;7.58;90.03;101177.09;5035776;28;20030;-62
2023/01/04 09:21:21;;;;;;;11.82;9.50;;;;;;;7.60;89.30;101180.41;5035202;28;20579;-62
2023/01/04 09:23:47;;;;;;;10.52;9.43;;;;;;;7.70;89.04;101174.84;5035524;28;20359;-62
2023/01/04 09:26:21;;;;;;;11.20;8.90;;;;;;;7.75;89.01;101166.31;5035636;28;20033;-62
2023/01/04 09:28:48;;;;;;;12.57;9.30;;;;;;;7.82;88.40;101157.41;5019650;28;20489;-62
2023/01/04 09:31:18;;;;;;;11.32;8.38;;;;;;;7.76;88.16;101150.13;5014973;28;20046;-62
2023/01/04 09:33:45;;;;;;;13.10;8.52;;;;;;;7.96;88.00;101144.31;5015141;28;20117;-62
2023/01/04 09:36:15;;;;;;;9.40;7.97;;;;;;;7.89;88.07;101147.69;5015293;28;20084;-62
2023/01/04 09:38:42;;;;;;;10.00;7.95;;;;;;;8.02;87.59;101140.91;5015665;28;20018;-62
2023/01/04 09:41:28;;;;;;;9.75;7.20;;;;;;;8.21;87.10;101138.53;5014861;28;20053;-62
2023/01/04 09:44:02;;;;;;;7.55;6.50;;;;;;;8.48;85.39;101128.25;5032533;28;20059;-62
2023/01/04 09:46:42;;;;;;;9.43;6.95;;;;;;;8.46;84.18;101119.63;5027937;28;20026;-62
2023/01/04 09:49:17;;;;;;;8.20;6.97;;;;;;;8.31;84.69;101113.44;5018754;28;20025;-62
2023/01/04 09:51:54;;;;;;;9.55;7.72;;;;;;;8.42;84.33;101105.81;5032514;28;20033;-62
2023/01/04 09:54:26;;;;;;;11.23;9.38;;;;;;;8.47;84.33;101091.94;5019249;28;20056;-62
2023/01/04 09:56:59;;;;;;;13.30;10.15;;;;;;;8.18;85.26;101100.75;5015250;28;20109;-62
2023/01/04 09:59:31;;;;;;;11.63;9.15;;;;;;;8.12;85.48;101091.66;5033192;28;20025;-62
2023/01/04 10:02:10;;;;;;;12.93;10.02;;;;;;;8.11;86.20;101078.50;5034719;28;20029;-62
2023/01/04 10:04:42;;;;;;;12.90;9.80;;;;;;;8.43;84.93;101062.13;5034532;28;20099;-62
2023/01/04 10:07:17;;;;;;;14.38;11.40;;;;;;;8.28;84.86;101057.81;5033367;28;20025;-62
2023/01/04 10:09:43;;;;;;;12.60;10.10;;;;;;;8.31;84.82;101052.09;5034209;28;20444;-62
2023/01/04 10:12:10;;;;;;;13.73;10.10;;;;;;;8.27;84.82;101056.13;5034051;28;20041;-62
2023/01/04 10:14:47;;;;;;;12.38;10.13;;;;;;;8.37;84.94;101062.03;5048885;28;20395;-62
2023/01/04 10:17:17;;;;;;;11.95;9.50;;;;;;;8.15;85.77;101051.28;5025856;28;20053;-62
2023/01/04 10:19:53;;;;;;;13.60;10.00;;;;;;;8.28;85.76;101041.81;5014478;28;20542;-62
2023/01/04 10:22:37;;;;;;;13.27;10.45;;;;;;;8.05;86.93;101032.09;5029058;28;20025;-62
2023/01/04 10:25:22;;;;;;;11.75;9.55;;;;;;;8.02;86.94;101032.44;5034546;28;20075;-62
2023/01/04 10:28:27;;;;;;;12.30;10.25;;;;;;;8.03;87.40;101026.09;5034467;28;20076;-62
2023/01/04 10:31:20;;;;;;;14.15;11.05;;;;;;;7.94;87.71;101027.22;5021672;28;20022;-62
2023/01/04 10:33:49;;;;;;;16.77;11.38;;;;;;;7.80;88.18;101028.84;5022702;28;20454;-62
2023/01/04 10:36:26;;;;;;;13.93;11.55;;;;;;;7.99;88.03;101024.81;5026658;28;20018;-62
2023/01/04 10:39:04;;;;;;;16.70;11.52;;;;;;;7.88;88.25;101026.13;5014216;28;20026;-62
2023/01/04 10:41:39;;;;;;;15.35;11.25;;;;;;;7.82;88.42;101016.16;5013962;28;20030;-62
2023/01/04 10:44:16;;;;;;;;;;;;;;;7.80;88.74;101004.06;5027251;28;20485;-62
2023/01/04 10:47:04;;;;;;;14.23;9.82;;;;;;;7.92;88.50;101007.91;5033982;28;19959;-62
2023/01/04 10:49:58;;;;;;;12.48;10.50;;;;;;;7.95;88.43;101007.56;5017039;28;20041;-62
2023/01/04 10:52:57;;;;;;;13.55;10.25;;;;;;;8.00;87.59;101013.16;5030356;28;20105;-62
2023/01/04 10:55:39;;;;;;;10.98;9.77;;;;;;;8.10;87.11;101012.84;5013982;28;20038;-62
2023/01/04 10:58:13;;;;;;;10.77;8.35;;;;;;;8.20;87.29;101006.22;5014283;28;20084;-62
2023/01/04 11:01:09;;;;;;;10.68;9.48;;;;;;;8.19;86.12;101007.25;5013948;28;20113;-62
2023/01/04 11:03:45;;;;;;;12.75;10.18;;;;;;;8.29;85.33;101001.63;5014170;28;20030;-62
2023/01/04 11:06:26;;;;;;;11.70;9.57;;;;;;;8.16;85.99;101006.78;5013910;28;20494;-62
2023/01/04 11:08:58;;;;;;;13.15;9.10;;;;;;;8.50;84.91;100995.53;5014004;28;20116;-62
2023/01/04 11:11:29;;;;;;;12.50;9.20;;;;;;;8.33;85.50;101002.06;5013573;28;20034;-62
2023/01/04 11:13:55;;;;;;;11.68;8.30;;;;;;;8.53;84.58;101005.81;5033423;28;20021;-62
2023/01/04 11:16:21;;;;;;;14.00;11.48;;;;;;;8.59;83.76;101015.72;5053485;28;20025;-62
2023/01/04 11:18:49;;;;;;;16.75;11.63;;;;;;;8.69;83.80;101018.91;5037071;28;20029;-62
2023/01/04 11:21:21;;;;;;;16.52;11.32;;;;;;;8.75;83.54;101004.00;5032963;28;20509;-62
2023/01/04 11:23:47;;;;;;;20.88;13.77;;;;;;;8.62;84.24;101011.88;5033503;28;20029;-62
2023/01/04 11:26:19;;;;;;;20.10;13.82;;;;;;;8.54;84.44;101018.13;5032679;28;20033;-62
2023/01/04 11:28:56;;;;;;;19.83;13.73;;;;;;;8.44;85.51;101022.97;5033157;28;20512;-62
2023/01/04 11:31:43;;;;;;;21.88;14.63;;;;;;;8.25;86.24;101024.34;5032541;28;20041;-62
2023/01/04 11:34:09;;;;;;;21.85;15.68;;;;;;;8.20;86.61;101035.53;5012155;28;20430;-62
2023/01/04 11:36:40;;;;;;;25.20;17.30;;;;;;;8.17;87.35;101032.44;5023743;28;20025;-62
2023/01/04 11:39:18;;;;;;;22.00;15.60;;;;;;;8.19;87.32;101033.06;5029989;28;20116;-62
2023/01/04 11:41:59;;;;;;;22.65;16.80;;;;;;;7.99;89.03;101027.47;5028959;28;20034;-62
2023/01/04 11:44:26;;;;;;;30.75;19.40;;;;;;;7.81;90.35;101024.34;5038703;28;20025;-62
2023/01/04 11:47:18;;;;;;;29.83;19.63;;;;;;;7.67;91.53;101024.16;5052546;28;20072;-62
2023/01/04 11:49:44;;;;;;;34.88;20.80;;;;;;;7.71;92.35;101032.59;5052249;28;20035;-62
2023/01/04 11:52:44;;;;;;;29.83;20.30;;;;;;;7.67;92.64;101028.69;5035012;28;20096;-62
2023/01/04 11:55:29;;;;;;;32.67;20.48;;;;;;;7.69;92.82;101034.63;4989803;28;20045;-62
2023/01/04 11:58:10;;;;;;;31.70;21.40;;;;;;;7.49;94.23;101025.50;5032761;28;20033;-62
2023/01/04 12:00:37;;;;;;;31.77;20.48;;;;;;;7.66;93.42;101024.34;5031093;28;20036;-62
2023/01/04 12:03:24;;;;;;;33.03;21.05;;;;;;;7.53;94.02;101016.97;5032015;28;20025;-63
2023/01/04 12:05:50;;;;;;;31.85;20.17;;;;;;;7.63;94.04;101017.53;5027755;28;20033;-62
2023/01/04 12:08:30;;;;;;;27.88;18.67;;;;;;;7.54;94.97;101018.63;5031156;28;20025;-62
2023/01/04 12:10:58;;;;;;;29.13;20.58;;;;;;;7.60;94.40;101017.91;5032056;28;20021;-63
2023/01/04 12:13:25;;;;;;;28.38;19.23;;;;;;;7.57;95.02;101006.81;5032568;28;20028;-64
2023/01/04 12:16:17;;;;;;;32.80;19.33;;;;;;;7.57;94.57;101014.78;5047841;28;20056;-64
2023/01/04 12:18:44;;;;;;;32.40;19.92;;;;;;;7.41;95.54;101023.75;5050661;28;20491;-64
2023/01/04 12:21:23;;;;;;;27.80;19.23;;;;;;;7.45;96.02;101022.41;5051958;28;20412;-65
2023/01/04 12:23:51;;;;;;;27.58;18.63;;;;;;;7.56;95.44;101013.97;5033502;28;20033;-65
2023/01/04 12:26:18;;;;;;;28.27;18.38;;;;;;;7.43;96.14;101019.06;5032044;28;20080;-65